Time;durP1;ratioP1;P1;durP2;ratioP2;P2;SDS_P1;SDS_P2;PMS_P1;PMS_P2;Temp;Humidity;BMP_temperature;BMP_pressure;BME280_temperature;BME280_humidity;BME280_pressure;Samples;Min_cycle;Max_cycle;Signal;HPM_P1;HPM_P2
2024/02/05 00:00:19;;;;;;;41.50;12.17;;;9.00;95.20;;;;;;5055957;28;20168;-91
2024/02/05 00:02:45;;;;;;;24.47;10.40;;;9.00;95.20;;;;;;5054406;28;20258;-91
2024/02/05 00:05:11;;;;;;;37.23;12.13;;;9.00;95.20;;;;;;5050457;28;20183;-92
2024/02/05 00:07:37;;;;;;;34.47;12.87;;;9.00;95.10;;;;;;5049323;28;20200;-91
2024/02/05 00:10:07;;;;;;;17.47;9.77;;;9.00;95.10;;;;;;5047290;28;20212;-92
2024/02/05 00:12:32;;;;;;;43.07;13.00;;;9.00;95.10;;;;;;5049899;28;20184;-92
2024/02/05 00:15:06;;;;;;;33.83;12.47;;;9.00;95.10;;;;;;5055618;28;20196;-91
2024/02/05 00:17:32;;;;;;;24.77;11.17;;;9.00;95.10;;;;;;5054225;28;20191;-90
2024/02/05 00:19:58;;;;;;;31.90;12.30;;;9.00;95.10;;;;;;5047926;28;20172;-91
2024/02/05 00:22:24;;;;;;;38.60;13.03;;;9.00;95.00;;;;;;5042493;28;20207;-91
2024/02/05 00:24:50;;;;;;;37.93;12.43;;;8.90;95.00;;;;;;5041511;28;20184;-91
2024/02/05 00:27:15;;;;;;;41.53;9.97;;;8.90;95.00;;;;;;5058454;28;20200;-90
2024/02/05 00:29:41;;;;;;;42.33;9.90;;;9.00;95.00;;;;;;5038227;28;20186;-91
2024/02/05 00:32:07;;;;;;;33.63;9.17;;;8.90;94.90;;;;;;5043086;28;20180;-89
2024/02/05 00:34:32;;;;;;;31.27;11.07;;;9.00;94.90;;;;;;5042423;28;20195;-91
2024/02/05 00:36:58;;;;;;;48.43;10.97;;;9.00;94.80;;;;;;5042314;28;20176;-91
2024/02/05 00:39:24;;;;;;;35.60;9.13;;;9.00;94.90;;;;;;5041089;28;20172;-90
2024/02/05 00:41:50;;;;;;;52.07;11.97;;;9.00;94.80;;;;;;5041133;28;20180;-91
2024/02/05 00:44:15;;;;;;;37.30;9.47;;;9.00;94.70;;;;;;5040461;28;20187;-91
2024/02/05 00:46:41;;;;;;;58.30;10.50;;;8.90;94.70;;;;;;5042914;28;20176;-91
2024/02/05 00:49:07;;;;;;;26.93;9.30;;;8.90;94.80;;;;;;5045345;28;20196;-90
2024/02/05 00:51:33;;;;;;;37.97;10.10;;;8.90;94.90;;;;;;5045530;28;20179;-91
2024/02/05 00:53:59;;;;;;;43.90;9.53;;;8.90;94.90;;;;;;5055583;28;20176;-90
2024/02/05 00:56:25;;;;;;;35.43;8.70;;;8.90;95.00;;;;;;5042308;28;20548;-90
2024/02/05 00:58:50;;;;;;;21.23;7.47;;;8.90;94.90;;;;;;5041663;28;20582;-91
2024/02/05 01:01:17;;;;;;;44.93;9.63;;;8.90;94.90;;;;;;5039859;28;20176;-90
2024/02/05 01:03:43;;;;;;;45.40;9.10;;;8.90;95.00;;;;;;5040961;28;20173;-91
2024/02/05 01:06:09;;;;;;;32.13;8.57;;;8.80;95.00;;;;;;5041817;28;20180;-91
2024/02/05 01:08:35;;;;;;;38.93;10.27;;;8.80;95.10;;;;;;5043078;28;20196;-90
2024/02/05 01:11:01;;;;;;;35.03;8.97;;;8.80;95.20;;;;;;5041877;28;20687;-90
2024/02/05 01:13:29;;;;;;;41.57;9.43;;;8.80;95.30;;;;;;5040241;28;20183;-91
2024/02/05 01:15:55;;;;;;;25.50;7.33;;;8.80;95.40;;;;;;5052420;28;20195;-90
2024/02/05 01:18:20;;;;;;;29.27;7.77;;;8.80;95.40;;;;;;5054247;28;20206;-90
2024/02/05 01:20:49;;;;;;;34.30;6.87;;;8.80;95.50;;;;;;5060738;28;20191;-91
2024/02/05 01:23:14;;;;;;;39.90;8.90;;;8.80;95.50;;;;;;5059836;28;20187;-92
2024/02/05 01:25:40;;;;;;;38.87;7.70;;;8.80;95.50;;;;;;5059451;28;20168;-90
2024/02/05 01:28:06;;;;;;;44.97;9.27;;;8.80;95.50;;;;;;5075999;28;20175;-91
2024/02/05 01:30:32;;;;;;;47.00;9.87;;;8.70;95.50;;;;;;5060743;28;20168;-92
2024/02/05 01:32:58;;;;;;;21.27;5.70;;;8.70;95.60;;;;;;5058017;28;20179;-89
2024/02/05 01:35:23;;;;;;;34.70;8.27;;;8.70;95.70;;;;;;5057364;28;20223;-91
2024/02/05 01:37:49;;;;;;;36.20;8.60;;;8.70;95.70;;;;;;5051656;28;20683;-92
2024/02/05 01:40:15;;;;;;;31.03;8.07;;;8.70;95.70;;;;;;5050110;28;20190;-91
2024/02/05 01:42:41;;;;;;;20.93;5.67;;;8.70;95.70;;;;;;5055203;28;20202;-92
2024/02/05 01:45:07;;;;;;;37.63;8.97;;;8.70;95.80;;;;;;5052110;28;20168;-92
2024/02/05 01:47:34;;;;;;;32.60;8.87;;;8.70;95.80;;;;;;5049026;28;20196;-91
2024/02/05 01:50:03;;;;;;;28.50;7.53;;;8.70;95.80;;;;;;5049978;28;20172;-92
2024/02/05 01:52:33;;;;;;;36.30;8.87;;;8.70;95.80;;;;;;5049017;28;20321;-92
2024/02/05 01:54:59;;;;;;;35.93;9.23;;;8.60;95.80;;;;;;5051841;28;20208;-93
2024/02/05 01:57:25;;;;;;;28.57;7.37;;;8.60;95.80;;;;;;5051446;28;20192;-92
2024/02/05 01:59:51;;;;;;;42.13;10.70;;;8.60;95.80;;;;;;5051264;28;20184;-91
2024/02/05 02:02:17;;;;;;;17.17;7.57;;;8.70;95.80;;;;;;5050480;28;20193;-92
2024/02/05 02:04:42;;;;;;;53.97;10.90;;;8.60;95.80;;;;;;5051288;28;20251;-91
2024/02/05 02:07:10;;;;;;;41.43;13.40;;;8.60;95.90;;;;;;5048947;28;20250;-92
2024/02/05 02:09:36;;;;;;;50.40;12.17;;;8.60;95.90;;;;;;5051295;28;20195;-93
2024/02/05 02:12:03;;;;;;;34.20;12.93;;;8.60;95.90;;;;;;5054022;28;20168;-92
2024/02/05 02:14:29;;;;;;;44.03;14.63;;;8.60;95.90;;;;;;5054343;28;20218;-91
2024/02/05 02:16:54;;;;;;;36.83;12.77;;;8.60;95.90;;;;;;5050727;28;20176;-91
2024/02/05 02:19:43;;;;;;;30.10;11.83;;;8.60;95.90;;;;;;5054248;28;20179;-91
2024/02/05 02:22:32;;;;;;;50.90;13.33;;;8.50;95.90;;;;;;5049755;28;20164;-91
2024/02/05 02:24:58;;;;;;;39.63;13.27;;;8.50;95.90;;;;;;5053165;28;20184;-92
2024/02/05 02:27:24;;;;;;;42.90;13.63;;;8.50;95.90;;;;;;5050056;28;20211;-91
2024/02/05 02:29:50;;;;;;;33.17;10.07;;;8.50;95.90;;;;;;5051254;28;20183;-92
2024/02/05 02:32:30;;;;;;;44.60;12.17;;;8.50;95.90;;;;;;5051979;28;20640;-91
2024/02/05 02:35:11;;;;;;;41.20;12.27;;;8.50;95.90;;;;;;5052312;28;20207;-91
2024/02/05 02:37:46;;;;;;;42.57;12.60;;;8.50;96.00;;;;;;5049677;28;20199;-92
2024/02/05 02:40:17;;;;;;;29.60;10.97;;;8.50;96.00;;;;;;5051040;28;20172;-92
2024/02/05 02:42:44;;;;;;;40.17;12.93;;;8.50;95.90;;;;;;5049494;28;20218;-93
2024/02/05 02:45:12;;;;;;;37.83;14.10;;;8.50;96.00;;;;;;5047733;28;20191;-91
2024/02/05 02:47:37;;;;;;;32.27;12.27;;;8.50;95.90;;;;;;5045818;28;20319;-92
2024/02/05 02:50:04;;;;;;;34.87;13.33;;;8.50;95.90;;;;;;5047536;28;20176;-91
2024/02/05 02:52:30;;;;;;;37.63;12.73;;;8.50;96.00;;;;;;5044433;28;20262;-91
2024/02/05 02:54:55;;;;;;;41.73;12.80;;;8.50;96.00;;;;;;5051831;28;20199;-91
2024/02/05 02:57:21;;;;;;;54.77;15.40;;;8.50;96.00;;;;;;5050094;28;20260;-91
2024/02/05 02:59:47;;;;;;;49.63;11.30;;;8.50;96.00;;;;;;5050511;28;20241;-92
2024/02/05 03:02:13;;;;;;;58.77;14.77;;;8.40;96.00;;;;;;5054043;28;20172;-92
2024/02/05 03:04:38;;;;;;;56.07;11.73;;;8.40;96.00;;;;;;5051711;28;20176;-92
2024/02/05 03:07:04;;;;;;;54.10;12.33;;;8.40;96.00;;;;;;5049926;28;20184;-91
2024/02/05 03:09:29;;;;;;;36.63;11.63;;;8.40;96.10;;;;;;5048177;28;20234;-91
2024/02/05 03:11:55;;;;;;;42.77;11.67;;;8.40;96.10;;;;;;5050437;28;20199;-92
2024/02/05 03:14:25;;;;;;;43.77;12.17;;;8.40;96.20;;;;;;5048235;28;20236;-91
2024/02/05 03:16:50;;;;;;;38.80;10.30;;;8.40;96.20;;;;;;5052619;28;20172;-91
2024/02/05 03:19:16;;;;;;;64.07;13.07;;;8.40;96.20;;;;;;5050208;28;20174;-92
2024/02/05 03:21:41;;;;;;;57.90;12.00;;;8.40;96.20;;;;;;5049162;28;20207;-91
2024/02/05 03:24:07;;;;;;;23.10;7.37;;;8.40;96.20;;;;;;5050323;28;20187;-92
2024/02/05 03:26:33;;;;;;;42.57;11.07;;;8.40;96.20;;;;;;5048147;28;20601;-92
2024/02/05 03:28:59;;;;;;;42.73;10.47;;;8.40;96.20;;;;;;5048060;28;20196;-92
2024/02/05 03:31:25;;;;;;;45.73;9.73;;;8.40;96.20;;;;;;5054378;28;20183;-92
2024/02/05 03:33:50;;;;;;;33.37;8.87;;;8.50;96.30;;;;;;5049399;28;20180;-92
2024/02/05 03:36:16;;;;;;;37.73;9.60;;;8.50;96.30;;;;;;5049808;28;20195;-92
2024/02/05 03:38:42;;;;;;;34.23;9.23;;;8.50;96.30;;;;;;5050173;28;20196;-92
2024/02/05 03:41:08;;;;;;;39.07;10.83;;;8.50;96.30;;;;;;5051049;28;20553;-91
2024/02/05 03:43:34;;;;;;;52.03;12.30;;;8.40;96.30;;;;;;5051623;28;20184;-91
2024/02/05 03:45:59;;;;;;;40.43;8.93;;;8.40;96.30;;;;;;5051361;28;20196;-92
2024/02/05 03:48:25;;;;;;;57.87;12.60;;;8.50;96.30;;;;;;5053616;28;20203;-92
2024/02/05 03:50:51;;;;;;;51.13;13.13;;;8.50;96.30;;;;;;5051796;28;20168;-92
2024/02/05 03:53:17;;;;;;;59.77;11.87;;;8.40;96.20;;;;;;5050722;28;20183;-92
2024/02/05 03:55:43;;;;;;;54.43;11.60;;;8.50;96.20;;;;;;5050275;28;20212;-92
2024/02/05 03:58:09;;;;;;;61.33;13.13;;;8.50;96.20;;;;;;5052165;28;20242;-92
2024/02/05 04:00:35;;;;;;;47.27;11.30;;;8.50;96.10;;;;;;5050984;28;20176;-92
2024/02/05 04:03:00;;;;;;;53.10;13.07;;;8.50;96.10;;;;;;5052199;28;20190;-91
2024/02/05 04:05:31;;;;;;;34.13;10.03;;;8.40;96.00;;;;;;5052129;28;20191;-91
2024/02/05 04:07:59;;;;;;;45.60;12.00;;;8.50;96.00;;;;;;5046210;28;20202;-92
2024/02/05 04:10:26;;;;;;;51.90;10.70;;;8.50;95.90;;;;;;5051791;28;20215;-91
2024/02/05 04:12:51;;;;;;;44.73;11.57;;;8.40;95.90;;;;;;5054514;28;20196;-92
2024/02/05 04:15:17;;;;;;;41.53;10.67;;;8.50;95.90;;;;;;5056225;28;20203;-91
2024/02/05 04:17:43;;;;;;;52.87;12.10;;;8.50;95.90;;;;;;5053808;28;20307;-92
2024/02/05 04:20:09;;;;;;;57.43;14.17;;;8.50;95.90;;;;;;5061843;28;20170;-92
2024/02/05 04:22:37;;;;;;;55.10;13.47;;;8.50;95.90;;;;;;5065140;28;20182;-92
2024/02/05 04:25:03;;;;;;;67.90;13.97;;;8.50;95.80;;;;;;5058496;28;20171;-92
2024/02/05 04:27:28;;;;;;;63.17;12.97;;;8.50;95.80;;;;;;5059480;28;20196;-92
2024/02/05 04:29:56;;;;;;;57.47;13.13;;;8.50;95.80;;;;;;5061700;28;20182;-92
2024/02/05 04:32:22;;;;;;;59.07;11.77;;;8.50;95.80;;;;;;5061345;28;20197;-91
2024/02/05 04:34:48;;;;;;;63.20;15.83;;;8.60;95.80;;;;;;5062046;28;20210;-92
2024/02/05 04:37:14;;;;;;;54.67;15.47;;;8.60;95.70;;;;;;5061867;28;20179;-91
2024/02/05 04:39:39;;;;;;;57.00;15.70;;;8.60;95.50;;;;;;5061715;28;20263;-91
2024/02/05 04:42:05;;;;;;;48.23;16.27;;;8.60;95.40;;;;;;5059379;28;20187;-91
2024/02/05 04:44:30;;;;;;;79.40;20.13;;;8.60;95.20;;;;;;5063272;28;20164;-92
2024/02/05 04:46:56;;;;;;;62.53;17.83;;;8.60;95.20;;;;;;5057679;28;20180;-92
2024/02/05 04:49:22;;;;;;;73.83;18.73;;;8.60;95.10;;;;;;5059017;28;20179;-92
2024/02/05 04:51:49;;;;;;;60.37;18.87;;;8.60;95.00;;;;;;5060643;28;20263;-92
2024/02/05 04:54:15;;;;;;;62.93;17.73;;;8.60;95.00;;;;;;5062044;28;20188;-91
2024/02/05 04:56:40;;;;;;;71.57;18.53;;;8.60;95.00;;;;;;5063471;28;20183;-92
2024/02/05 04:59:06;;;;;;;69.27;17.73;;;8.60;94.80;;;;;;5059618;28;20195;-91
2024/02/05 05:01:32;;;;;;;44.17;15.07;;;8.60;94.70;;;;;;5062035;28;20180;-91
2024/02/05 05:03:57;;;;;;;66.10;16.83;;;8.60;94.60;;;;;;5059292;28;20176;-90
2024/02/05 05:06:23;;;;;;;63.10;18.20;;;8.60;94.50;;;;;;5059310;28;20196;-92
2024/02/05 05:08:49;;;;;;;65.80;18.93;;;8.60;94.40;;;;;;5057435;28;20196;-92
2024/02/05 05:11:24;;;;;;;65.77;18.60;;;8.60;94.30;;;;;;5054713;28;20191;-92
2024/02/05 05:13:49;;;;;;;73.97;20.03;;;8.60;94.20;;;;;;5056043;28;20187;-91
2024/02/05 05:16:16;;;;;;;60.87;18.40;;;8.60;94.20;;;;;;5057340;28;20223;-91
2024/02/05 05:18:42;;;;;;;61.07;18.00;;;8.60;94.10;;;;;;5059467;28;20267;-91
2024/02/05 05:21:07;;;;;;;75.37;21.40;;;8.60;94.20;;;;;;5057435;28;20176;-91
2024/02/05 05:23:33;;;;;;;55.10;14.70;;;8.50;94.40;;;;;;5058230;28;20222;-93
2024/02/05 05:25:59;;;;;;;69.53;14.80;;;8.60;94.50;;;;;;5057530;28;20179;-91
2024/02/05 05:28:25;;;;;;;60.97;15.87;;;8.50;94.60;;;;;;5058081;28;20200;-92
2024/02/05 05:30:50;;;;;;;68.83;13.07;;;8.50;94.60;;;;;;5053468;28;20194;-92
2024/02/05 05:33:16;;;;;;;61.90;15.03;;;8.60;94.60;;;;;;5055097;28;20184;-92
2024/02/05 05:35:41;;;;;;;71.33;14.60;;;8.60;94.50;;;;;;5054312;28;20207;-92
2024/02/05 05:38:07;;;;;;;78.87;14.90;;;8.50;94.60;;;;;;5073007;28;20219;-92
2024/02/05 05:40:33;;;;;;;57.10;12.37;;;8.50;94.60;;;;;;5056308;28;20180;-91
2024/02/05 05:42:59;;;;;;;44.83;10.73;;;8.50;94.70;;;;;;5059232;28;20184;-92
2024/02/05 05:45:27;;;;;;;74.60;15.87;;;8.50;94.80;;;;;;5058427;28;20174;-91
2024/02/05 05:47:53;;;;;;;45.33;12.07;;;8.40;94.90;;;;;;5056770;28;20192;-91
2024/02/05 05:50:18;;;;;;;56.50;14.07;;;8.40;95.00;;;;;;5060625;28;20256;-92
2024/02/05 05:52:44;;;;;;;74.60;14.53;;;8.40;95.00;;;;;;5058670;28;20183;-92
2024/02/05 05:55:10;;;;;;;64.30;13.77;;;8.40;95.10;;;;;;5059434;28;20208;-91
2024/02/05 05:57:36;;;;;;;61.40;14.73;;;8.40;95.10;;;;;;5058023;28;20778;-91
2024/02/05 06:00:05;;;;;;;72.60;13.40;;;8.40;95.10;;;;;;5056198;28;20183;-92
2024/02/05 06:02:31;;;;;;;74.53;14.80;;;8.40;95.20;;;;;;5057710;28;20180;-91
2024/02/05 06:05:05;;;;;;;59.67;14.53;;;8.40;95.20;;;;;;5058964;28;20187;-92
2024/02/05 06:07:31;;;;;;;60.23;13.47;;;8.40;95.20;;;;;;5058939;28;20210;-92
2024/02/05 06:09:56;;;;;;;73.60;16.43;;;8.40;95.20;;;;;;5060625;28;20186;-92
2024/02/05 06:12:22;;;;;;;64.60;14.70;;;8.30;95.10;;;;;;5058820;28;20195;-92
2024/02/05 06:14:48;;;;;;;66.13;13.97;;;8.40;95.10;;;;;;5059374;28;20204;-92
2024/02/05 06:17:13;;;;;;;54.67;11.60;;;8.30;95.10;;;;;;5059697;28;20187;-92
2024/02/05 06:19:39;;;;;;;54.50;13.03;;;8.30;95.00;;;;;;5058985;28;20172;-93
2024/02/05 06:22:04;;;;;;;57.93;14.33;;;8.30;95.00;;;;;;5058815;28;20211;-91
2024/02/05 06:45:13;;;;;;;62.07;13.43;;;8.30;95.00;;;;;;5055839;26;20226;-91
2024/02/05 06:47:39;;;;;;;64.13;15.47;;;8.30;95.00;;;;;;5039568;28;20203;-91
2024/02/05 06:50:09;;;;;;;62.07;14.83;;;8.30;94.90;;;;;;5040222;28;20177;-92
2024/02/05 06:52:35;;;;;;;44.60;11.77;;;8.30;94.90;;;;;;5040314;28;20181;-89
2024/02/05 06:55:00;;;;;;;69.27;15.53;;;8.30;94.80;;;;;;5039641;28;20219;-91
2024/02/05 06:57:26;;;;;;;53.67;14.80;;;8.40;94.70;;;;;;5036685;28;20193;-90
2024/02/05 06:59:52;;;;;;;43.73;14.63;;;8.40;94.40;;;;;;5039001;28;20245;-91
2024/02/05 07:02:17;;;;;;;57.57;19.20;;;8.40;94.30;;;;;;5038359;28;20181;-91
2024/02/05 07:04:43;;;;;;;57.60;20.80;;;8.50;93.70;;;;;;5038989;28;20177;-90
2024/02/05 07:07:09;;;;;;;52.00;20.00;;;8.50;93.50;;;;;;5035327;28;20196;-90
2024/02/05 07:09:36;;;;;;;51.07;21.13;;;8.60;92.90;;;;;;5038972;28;20179;-91
2024/02/05 07:12:02;;;;;;;64.30;20.90;;;8.60;92.70;;;;;;5037917;28;20181;-90
2024/02/05 07:14:28;;;;;;;57.60;21.53;;;8.60;92.60;;;;;;5038679;28;20272;-91
2024/02/05 07:16:53;;;;;;;67.03;22.50;;;8.60;92.50;;;;;;5037230;28;20192;-91
2024/02/05 07:19:19;;;;;;;64.40;22.10;;;8.60;92.50;;;;;;5037240;28;20248;-91
2024/02/05 07:21:45;;;;;;;59.77;23.23;;;8.60;92.30;;;;;;5037834;28;20160;-91
2024/02/05 07:24:14;;;;;;;43.27;20.87;;;8.60;92.30;;;;;;5035575;28;20200;-92
2024/02/05 07:26:39;;;;;;;56.10;23.10;;;8.70;91.80;;;;;;5034667;28;20279;-92
2024/02/05 07:29:05;;;;;;;50.93;23.57;;;8.70;91.70;;;;;;5038004;28;20180;-89
2024/02/05 07:31:30;;;;;;;69.20;23.53;;;8.70;91.50;;;;;;5036957;28;20264;-91
2024/02/05 07:33:57;;;;;;;41.83;23.10;;;8.70;91.70;;;;;;5035914;28;20165;-91
2024/02/05 07:36:22;;;;;;;55.90;24.17;;;8.70;91.50;;;;;;5037931;28;20220;-89
2024/02/05 07:38:49;;;;;;;53.73;24.33;;;8.70;91.40;;;;;;5037370;28;20204;-91
2024/02/05 07:41:15;;;;;;;58.67;23.23;;;8.80;91.10;;;;;;5035616;28;20185;-90
2024/02/05 07:43:41;;;;;;;51.30;23.97;;;8.70;91.20;;;;;;5037898;28;20196;-89
2024/02/05 07:46:09;;;;;;;52.67;22.97;;;8.70;91.10;;;;;;5035892;28;20160;-89
2024/02/05 07:48:35;;;;;;;60.93;26.90;;;8.80;90.60;;;;;;5037764;28;20204;-91
2024/02/05 07:51:05;;;;;;;57.70;24.80;;;8.80;90.60;;;;;;5035860;28;20192;-90
2024/02/05 07:53:31;;;;;;;50.23;25.87;;;8.80;90.70;;;;;;5032094;28;20252;-89
2024/02/05 07:55:57;;;;;;;46.27;22.77;;;8.80;90.40;;;;;;5034551;28;20272;-90
2024/02/05 07:58:22;;;;;;;48.00;25.50;;;8.80;90.50;;;;;;5034602;28;20219;-92
2024/02/05 08:00:48;;;;;;;52.80;22.20;;;8.80;90.50;;;;;;5026581;28;20176;-91
2024/02/05 08:03:14;;;;;;;39.97;22.13;;;8.90;90.10;;;;;;5029062;28;20532;-90
2024/02/05 08:05:40;;;;;;;49.10;22.67;;;8.90;89.90;;;;;;5026532;28;20191;-92
2024/02/05 08:08:06;;;;;;;42.83;24.00;;;8.80;89.80;;;;;;5028909;28;20204;-91
2024/02/05 08:10:31;;;;;;;52.23;22.43;;;8.80;90.00;;;;;;5032423;28;20184;-91
2024/02/05 08:12:57;;;;;;;47.97;22.43;;;8.80;90.00;;;;;;5017156;28;20256;-92
2024/02/05 08:15:22;;;;;;;55.77;23.17;;;8.80;89.90;;;;;;5032730;28;20207;-90
2024/02/05 08:17:48;;;;;;;52.17;16.50;;;8.80;90.00;;;;;;5030613;28;20196;-90
2024/02/05 08:20:14;;;;;;;49.00;16.60;;;8.80;90.10;;;;;;5028425;28;20177;-90
2024/02/05 08:22:40;;;;;;;54.77;17.30;;;8.80;90.00;;;;;;5031686;28;20176;-90
2024/02/05 08:25:06;;;;;;;46.20;17.27;;;8.80;89.80;;;;;;5031837;28;20185;-89
2024/02/05 08:27:32;;;;;;;41.90;16.77;;;8.90;89.50;;;;;;5032529;28;20204;-90
2024/02/05 08:29:58;;;;;;;53.03;16.10;;;8.90;89.60;;;;;;5034049;28;20203;-91
2024/02/05 08:32:24;;;;;;;52.70;17.47;;;8.90;89.70;;;;;;5027982;28;20184;-91
2024/02/05 08:34:50;;;;;;;22.90;13.10;;;9.00;89.40;;;;;;5032927;28;20299;-92
2024/02/05 08:37:16;;;;;;;46.00;16.20;;;8.90;89.30;;;;;;5047025;28;20223;-90
2024/02/05 08:39:41;;;;;;;48.30;15.03;;;9.00;89.10;;;;;;5032764;28;20213;-91
2024/02/05 08:42:07;;;;;;;44.30;16.93;;;8.90;89.30;;;;;;5030604;28;20192;-90
2024/02/05 08:44:33;;;;;;;42.33;15.13;;;8.90;89.30;;;;;;5030177;28;20222;-91
2024/02/05 08:46:59;;;;;;;37.90;14.63;;;8.90;89.30;;;;;;5030544;28;20179;-91
2024/02/05 08:49:25;;;;;;;38.43;14.40;;;8.90;89.30;;;;;;5033051;28;20179;-90
2024/02/05 08:51:51;;;;;;;49.27;16.53;;;8.90;89.30;;;;;;5033969;28;20157;-90
2024/02/05 08:54:17;;;;;;;47.07;16.37;;;8.90;89.30;;;;;;5033883;28;20676;-91
2024/02/05 08:56:43;;;;;;;46.57;16.60;;;9.00;89.20;;;;;;5017504;28;20221;-90
2024/02/05 08:59:09;;;;;;;39.03;16.60;;;9.00;89.10;;;;;;5035460;28;20176;-90
2024/02/05 09:01:35;;;;;;;48.87;18.90;;;8.90;89.20;;;;;;5031218;28;20177;-92
2024/02/05 09:04:00;;;;;;;41.47;16.23;;;9.00;89.20;;;;;;5030348;28;20268;-90
2024/02/05 09:06:27;;;;;;;35.27;14.17;;;8.90;89.20;;;;;;5031188;28;20191;-90
2024/02/05 09:08:53;;;;;;;36.37;15.13;;;9.00;88.60;;;;;;5035430;28;20199;-91
2024/02/05 09:11:19;;;;;;;38.37;14.67;;;9.00;88.70;;;;;;5034985;28;20177;-90
2024/02/05 09:13:44;;;;;;;45.93;16.57;;;9.00;88.80;;;;;;5036772;28;20180;-91
2024/02/05 09:16:10;;;;;;;42.07;15.87;;;8.90;89.10;;;;;;5033914;28;20275;-90
2024/02/05 09:18:36;;;;;;;40.30;16.10;;;9.00;89.20;;;;;;5030889;28;20208;-91
2024/02/05 09:21:02;;;;;;;45.00;16.47;;;9.00;89.10;;;;;;5030086;28;20181;-91
2024/02/05 09:23:28;;;;;;;39.83;17.13;;;9.00;89.00;;;;;;5032609;28;20201;-90
2024/02/05 09:25:53;;;;;;;39.93;17.83;;;9.10;88.90;;;;;;5032581;28;20173;-91
2024/02/05 09:28:20;;;;;;;43.60;16.07;;;9.00;89.10;;;;;;5030928;28;20250;-91
2024/02/05 09:30:46;;;;;;;28.30;14.77;;;9.00;89.10;;;;;;5034899;28;20176;-92
2024/02/05 09:33:12;;;;;;;39.20;15.53;;;9.10;89.10;;;;;;5029042;28;20240;-90
2024/02/05 09:35:37;;;;;;;48.00;16.17;;;9.00;89.30;;;;;;5033615;28;20204;-91
2024/02/05 09:38:04;;;;;;;53.93;16.20;;;9.00;89.50;;;;;;5035347;28;20189;-89
2024/02/05 09:40:29;;;;;;;34.80;13.40;;;9.00;89.70;;;;;;5036194;28;20176;-91
2024/02/05 09:42:56;;;;;;;32.53;14.43;;;9.00;90.00;;;;;;5034809;28;20181;-91
2024/02/05 09:45:26;;;;;;;53.70;15.63;;;8.90;90.20;;;;;;5030419;28;20181;-88
2024/02/05 09:47:52;;;;;;;37.20;15.07;;;9.00;90.10;;;;;;5032136;28;20204;-90
2024/02/05 09:50:19;;;;;;;41.83;14.90;;;9.00;90.20;;;;;;5036800;28;20254;-90
2024/02/05 09:52:45;;;;;;;37.63;15.07;;;8.90;90.40;;;;;;5034274;28;20172;-90
2024/02/05 09:55:12;;;;;;;41.20;15.30;;;8.90;90.50;;;;;;5034358;28;20276;-92
2024/02/05 09:57:39;;;;;;;40.77;15.33;;;9.00;90.20;;;;;;5036548;28;20262;-91
2024/02/05 10:00:10;;;;;;;39.23;14.63;;;8.90;90.50;;;;;;5036208;28;20180;-89
2024/02/05 10:02:38;;;;;;;36.50;14.67;;;9.00;90.20;;;;;;5037090;28;20169;-90
2024/02/05 10:05:10;;;;;;;30.90;12.73;;;9.00;90.10;;;;;;5036242;28;20215;-91
2024/02/05 10:07:38;;;;;;;39.73;14.30;;;8.90;90.10;;;;;;5036367;28;20204;-90
2024/02/05 10:10:05;;;;;;;47.87;15.07;;;9.10;89.50;;;;;;5037861;28;20221;-91
2024/02/05 10:12:35;;;;;;;29.57;11.97;;;9.00;89.50;;;;;;5036304;28;20272;-91
2024/02/05 10:15:03;;;;;;;40.53;15.20;;;9.10;89.20;;;;;;5036711;28;20208;-91
2024/02/05 10:17:29;;;;;;;38.83;14.90;;;9.10;89.20;;;;;;5051467;28;20178;-90
2024/02/05 10:19:54;;;;;;;40.50;14.90;;;9.00;89.40;;;;;;5032453;28;20184;-89
2024/02/05 10:22:21;;;;;;;44.93;14.33;;;9.10;89.10;;;;;;5029680;28;20172;-90
2024/02/05 10:24:46;;;;;;;33.70;15.33;;;9.20;89.00;;;;;;5028608;28;20240;-91
2024/02/05 10:27:19;;;;;;;39.07;14.37;;;9.10;89.10;;;;;;5025706;28;20247;-91
2024/02/05 10:29:45;;;;;;;35.37;20.10;;;9.10;89.20;;;;;;5022375;28;20177;-90
2024/02/05 10:32:10;;;;;;;31.60;19.10;;;9.10;89.40;;;;;;5024925;28;20242;-91
2024/02/05 10:34:36;;;;;;;35.87;21.00;;;9.00;89.50;;;;;;5031901;28;20234;-90
2024/02/05 10:37:10;;;;;;;50.67;23.03;;;9.10;89.40;;;;;;5049504;28;20218;-91
2024/02/05 10:39:36;;;;;;;36.40;19.93;;;9.10;89.40;;;;;;5030799;28;20173;-91
2024/02/05 10:42:03;;;;;;;41.87;21.33;;;9.10;89.40;;;;;;5030539;28;20195;-91
2024/02/05 10:44:29;;;;;;;48.73;20.80;;;9.10;89.30;;;;;;5031632;28;20272;-90
2024/02/05 10:46:55;;;;;;;37.70;20.27;;;9.10;89.50;;;;;;5033864;28;20177;-90
2024/02/05 10:49:20;;;;;;;33.47;18.80;;;9.00;89.60;;;;;;5035196;28;20185;-90
2024/02/05 10:51:46;;;;;;;46.73;19.40;;;9.10;89.80;;;;;;5034393;28;20232;-91
2024/02/05 10:54:12;;;;;;;43.37;18.90;;;9.10;89.90;;;;;;5035905;28;20185;-90
2024/02/05 10:56:42;;;;;;;41.10;18.67;;;9.00;90.30;;;;;;5034886;28;20169;-91
2024/02/05 10:59:09;;;;;;;25.83;16.90;;;9.00;90.50;;;;;;5037417;28;20238;-91
2024/02/05 11:01:49;;;;;;;32.87;16.53;;;9.00;90.30;;;;;;5035146;28;20181;-90
2024/02/05 11:04:17;;;;;;;40.20;18.93;;;9.00;90.30;;;;;;5036900;28;20180;-92
2024/02/05 11:06:46;;;;;;;38.20;18.00;;;9.10;90.20;;;;;;5035157;28;20207;-90
2024/02/05 11:09:14;;;;;;;42.17;20.23;;;9.00;90.10;;;;;;5030717;28;20181;-92
2024/02/05 11:11:43;;;;;;;50.30;20.57;;;9.10;89.50;;;;;;5030840;28;20342;-91
2024/02/05 11:14:11;;;;;;;33.47;20.60;;;9.10;89.30;;;;;;5033030;28;20520;-91
2024/02/05 11:16:39;;;;;;;38.17;17.33;;;9.10;89.40;;;;;;5031297;28;20168;-91
2024/02/05 11:19:07;;;;;;;35.40;14.47;;;9.10;89.10;;;;;;5029776;28;20211;-92
2024/02/05 11:21:37;;;;;;;43.97;17.83;;;9.20;88.50;;;;;;5031763;28;20432;-91
2024/02/05 11:24:06;;;;;;;27.30;15.93;;;9.20;88.40;;;;;;5034915;28;20483;-91
2024/02/05 11:26:32;;;;;;;36.00;16.60;;;9.20;88.30;;;;;;5034468;28;20192;-92
2024/02/05 11:28:57;;;;;;;37.83;17.77;;;9.20;88.30;;;;;;5034350;28;20743;-92
2024/02/05 11:31:30;;;;;;;32.83;16.37;;;9.30;87.80;;;;;;5036638;28;20185;-90
2024/02/05 11:34:03;;;;;;;29.40;15.00;;;9.30;87.80;;;;;;5032796;28;20181;-90
2024/02/05 11:36:30;;;;;;;28.37;14.30;;;9.20;88.10;;;;;;5033451;28;20220;-92
2024/02/05 11:39:03;;;;;;;29.57;12.83;;;9.20;88.20;;;;;;5032309;28;20192;-91
2024/02/05 11:41:29;;;;;;;;;;;9.20;88.30;;;;;;5027520;28;20173;-90
2024/02/05 11:44:03;;;;;;;;;;;9.20;88.60;;;;;;5027379;28;19920;-91
2024/02/05 11:46:29;;;;;;;;;;;9.10;89.10;;;;;;5028205;28;19989;-91
2024/02/05 11:48:55;;;;;;;19.37;10.03;;;9.00;89.80;;;;;;5026779;28;19951;-90
2024/02/05 11:51:20;;;;;;;21.93;11.20;;;8.90;90.40;;;;;;5032638;28;20248;-91
2024/02/05 11:53:49;;;;;;;40.43;13.17;;;8.90;90.80;;;;;;5033559;28;20192;-89
2024/02/05 11:56:17;;;;;;;34.83;10.30;;;8.80;91.60;;;;;;5039569;28;20215;-92
2024/02/05 11:58:43;;;;;;;22.67;9.60;;;8.70;92.00;;;;;;5038793;28;20208;-91
2024/02/05 12:01:12;;;;;;;37.50;10.93;;;8.70;92.40;;;;;;5040164;28;20237;-92
2024/02/05 12:03:38;;;;;;;29.10;10.90;;;8.60;92.80;;;;;;5040284;28;20193;-91
2024/02/05 12:06:04;;;;;;;24.97;8.43;;;8.60;92.90;;;;;;5040265;28;20176;-91
2024/02/05 12:08:30;;;;;;;22.80;9.03;;;8.60;93.10;;;;;;5041068;28;20208;-93
2024/02/05 12:10:56;;;;;;;27.63;8.63;;;8.50;93.40;;;;;;5038463;28;20181;-90
2024/02/05 12:13:22;;;;;;;37.40;9.80;;;8.50;93.60;;;;;;5039154;28;20203;-91
2024/02/05 12:15:47;;;;;;;23.17;8.47;;;8.50;93.80;;;;;;5054057;28;20279;-92
2024/02/05 12:18:13;;;;;;;27.13;9.93;;;8.40;93.90;;;;;;5023112;28;20204;-91
2024/02/05 12:20:39;;;;;;;14.23;7.80;;;8.40;94.00;;;;;;5025862;28;20185;-92
2024/02/05 12:23:08;;;;;;;29.10;9.50;;;8.40;94.10;;;;;;5037408;28;20236;-91
2024/02/05 12:25:34;;;;;;;42.83;11.10;;;8.40;93.90;;;;;;5027912;28;20283;-91
2024/02/05 12:28:00;;;;;;;37.57;11.20;;;8.40;93.80;;;;;;5035121;28;20180;-93
2024/02/05 12:30:29;;;;;;;23.73;9.57;;;8.50;93.80;;;;;;5032875;28;20185;-92
2024/02/05 12:32:55;;;;;;;23.87;7.83;;;8.40;93.90;;;;;;5039891;28;21082;-96
2024/02/05 12:43:07;;;;;;;31.37;9.80;;;8.40;93.70;;;;;;5130584;22;20238;-92
2024/02/05 12:45:41;;;;;;;27.87;9.17;;;8.40;93.60;;;;;;5730077;22;20256;-94
2024/02/05 12:50:42;;;;;;;;;;;8.40;93.70;;;;;;5296227;22;20273;-92
2024/02/05 12:53:09;;;;;;;23.13;9.90;;;8.50;93.30;;;;;;5044142;28;19928;-92
2024/02/05 12:55:35;;;;;;;31.60;12.07;;;8.60;92.60;;;;;;5025178;28;20204;-94
2024/02/05 12:58:00;;;;;;;36.87;12.87;;;8.70;92.20;;;;;;5023003;28;20687;-89
2024/02/05 13:00:26;;;;;;;34.97;13.40;;;8.80;90.90;;;;;;5030030;28;20192;-92
2024/02/05 13:03:10;;;;;;;35.13;18.13;;;8.80;90.60;;;;;;5041856;28;20185;-90
2024/02/05 13:05:39;;;;;;;25.90;17.03;;;8.80;90.20;;;;;;5040534;28;20164;-90
2024/02/05 13:08:08;;;;;;;36.03;17.97;;;8.90;89.80;;;;;;5040660;28;20191;-92